地図

経路データ

SID SEASON NUMBER BASIN SUBBASIN NAME ISO_TIME NATURE LAT LON WMO_WIND WMO_PRES WMO_AGENCY TRACK_TYPE DIST2LAND LANDFALL IFLAG USA_AGENCY USA_ATCF_ID USA_LAT USA_LON USA_RECORD USA_STATUS USA_WIND USA_PRES USA_SSHS USA_R34_NE USA_R34_SE USA_R34_SW USA_R34_NW USA_R50_NE USA_R50_SE USA_R50_SW USA_R50_NW USA_R64_NE USA_R64_SE USA_R64_SW USA_R64_NW USA_POCI USA_ROCI USA_RMW USA_EYE TOKYO_LAT TOKYO_LON TOKYO_GRADE TOKYO_WIND TOKYO_PRES TOKYO_R50_DIR TOKYO_R50_LONG TOKYO_R50_SHORT TOKYO_R30_DIR TOKYO_R30_LONG TOKYO_R30_SHORT TOKYO_LAND CMA_LAT CMA_LON CMA_CAT CMA_WIND CMA_PRES HKO_LAT HKO_LON HKO_CAT HKO_WIND HKO_PRES NEWDELHI_LAT NEWDELHI_LON NEWDELHI_GRADE NEWDELHI_WIND NEWDELHI_PRES NEWDELHI_CI NEWDELHI_DP NEWDELHI_POCI REUNION_LAT REUNION_LON REUNION_TYPE REUNION_WIND REUNION_PRES REUNION_TNUM REUNION_CI REUNION_RMW REUNION_R34_NE REUNION_R34_SE REUNION_R34_SW REUNION_R34_NW REUNION_R50_NE REUNION_R50_SE REUNION_R50_SW REUNION_R50_NW REUNION_R64_NE REUNION_R64_SE REUNION_R64_SW REUNION_R64_NW BOM_LAT BOM_LON BOM_TYPE BOM_WIND BOM_PRES BOM_TNUM BOM_CI BOM_RMW BOM_R34_NE BOM_R34_SE BOM_R34_SW BOM_R34_NW BOM_R50_NE BOM_R50_SE BOM_R50_SW BOM_R50_NW BOM_R64_NE BOM_R64_SE BOM_R64_SW BOM_R64_NW BOM_ROCI BOM_POCI BOM_EYE BOM_POS_METHOD BOM_PRES_METHOD NADI_LAT NADI_LON NADI_CAT NADI_WIND NADI_PRES WELLINGTON_LAT WELLINGTON_LON WELLINGTON_WIND WELLINGTON_PRES DS824_LAT DS824_LON DS824_STAGE DS824_WIND DS824_PRES TD9636_LAT TD9636_LON TD9636_STAGE TD9636_WIND TD9636_PRES TD9635_LAT TD9635_LON TD9635_WIND TD9635_PRES TD9635_ROCI NEUMANN_LAT NEUMANN_LON NEUMANN_CLASS NEUMANN_WIND NEUMANN_PRES MLC_LAT MLC_LON MLC_CLASS MLC_WIND MLC_PRES USA_GUST BOM_GUST BOM_GUST_PER REUNION_GUST REUNION_GUST_PER USA_SEAHGT USA_SEARAD_NE USA_SEARAD_SE USA_SEARAD_SW USA_SEARAD_NW STORM_SPEED STORM_DIR
1873269N13303 1873 18 NA NA NOT_NAMED 1873-09-25 12:00:00 TS 13.2000 -57.0000 main 517 470 _____________O -1 13.2000 -57.0000 TS 35 13 284
1873269N13303 1873 18 NA NA NOT_NAMED 1873-09-25 15:00:00 TS 13.3629 -57.6622 main 469 429 _____________P -1 13.3629 -57.6622 TS 35 13 283
1873269N13303 1873 18 NA NA NOT_NAMED 1873-09-25 18:00:00 TS 13.5000 -58.3000 main 429 401 _____________O -1 13.5000 -58.3000 TS 35 12 281
1873269N13303 1873 18 NA NA NOT_NAMED 1873-09-25 21:00:00 TS 13.5997 -58.9002 main 397 371 _____________P -1 13.5997 -58.9002 TS 37 21 284
1873269N13303 1873 18 NA CS NOT_NAMED 1873-09-26 00:00:00 TS 14.0333 -60.4333 40 hurdat_atl main 375 375 O____________O hurdat_atl AL051873 14.7000 -62.3000 TS 40 0 13.7000 -59.5000 TS 40 25 286
1873269N13303 1873 18 NA CS NOT_NAMED 1873-09-26 03:00:00 TS 14.2963 -61.4225 main 403 403 P____________P AL051873 14.7427 -62.6950 TS 40 0 13.8499 -60.1499 TS 40 18 285
1873269N13303 1873 18 NA CS NOT_NAMED 1873-09-26 06:00:00 TS 14.4800 -62.1800 40 hurdat_atl main 425 425 O____________O hurdat_atl AL051873 14.8000 -63.1000 TS 40 0 14.0000 -60.8000 TS 40 14 283
1873269N13303 1873 18 NA CS NOT_NAMED 1873-09-26 09:00:00 TS 14.6155 -62.8036 main 436 436 P____________P AL051873 14.8849 -63.5276 TS 45 0 14.0768 -61.3556 TS 45 11 283
1873269N13303 1873 18 NA CS NOT_NAMED 1873-09-26 12:00:00 TS 14.7333 -63.3333 50 hurdat_atl main 448 401 O____________O hurdat_atl AL051873 15.0000 -64.0000 TS 50 0 14.2000 -62.0000 TS 50 12 285
1873269N13303 1873 18 NA CS NOT_NAMED 1873-09-26 15:00:00 TS 14.9133 -63.9742 main 396 345 P____________P AL051873 15.1348 -64.5126 TS 50 0 14.4702 -62.8973 TS 55 14 287
1873269N13303 1873 18 NA CS NOT_NAMED 1873-09-26 18:00:00 TS 15.1333 -64.7000 50 hurdat_atl main 345 292 O____________O hurdat_atl AL051873 15.3000 -65.1000 TS 50 0 14.8000 -63.9000 TS 60 15 287
1873269N13303 1873 18 NA CS NOT_NAMED 1873-09-26 21:00:00 TS 15.3667 -65.4833 main 289 257 P____________P AL051873 15.5002 -65.7999 TS 55 0 15.0996 -64.8503 TS 60 16 287
1873269N13303 1873 18 NA CS NOT_NAMED 1873-09-27 00:00:00 TS 15.6000 -66.2667 60 hurdat_atl main 257 235 O____________O hurdat_atl AL051873 15.7000 -66.5000 TS 60 0 15.4000 -65.8000 TS 60 15 287
1873269N13303 1873 18 NA CS NOT_NAMED 1873-09-27 03:00:00 TS 15.8120 -66.9502 main 235 213 P____________P AL051873 15.8645 -67.0502 TS 60 0 15.7071 -66.7502 TS 65 14 287
1873269N13303 1873 18 NA CS NOT_NAMED 1873-09-27 06:00:00 TS 16.0000 -67.6333 60 hurdat_atl main 216 214 O____________O hurdat_atl AL051873 16.0000 -67.6000 TS 60 0 16.0000 -67.7000 HU 70 15 283
1873269N13303 1873 18 NA CS NOT_NAMED 1873-09-27 09:00:00 TS 16.1503 -68.4468 main 224 213 P____________P AL051873 16.0927 -68.3002 TS 65 1 16.2655 -68.7399 HU 72 15 281
1873269N13303 1873 18 NA CS NOT_NAMED 1873-09-27 12:00:00 TS 16.3000 -69.2000 70 hurdat_atl main 216 197 O____________O hurdat_atl AL051873 16.2000 -69.0000 HU 70 1 16.5000 -69.6000 HU 75 13 286
1873269N13303 1873 18 NA CS NOT_NAMED 1873-09-27 15:00:00 TS 16.4970 -69.7334 main 197 168 P____________P AL051873 16.3922 -69.5799 HU 70 1 16.7067 -70.0404 HU 77 10 293
1873269N13303 1873 18 NA CS NOT_NAMED 1873-09-27 18:00:00 TS 16.7000 -70.1667 70 hurdat_atl main 162 115 O____________O hurdat_atl AL051873 16.6000 -70.1000 HU 70 1 16.9000 -70.3000 HU 80 9 293
1873269N13303 1873 18 NA CS NOT_NAMED 1873-09-27 21:00:00 TS 16.8614 -70.6094 main 115 79 P____________P AL051873 16.7422 -70.5928 HU 75 1 17.0999 -70.6426 HU 82 9 291
1873269N13303 1873 18 NA CS NOT_NAMED 1873-09-28 00:00:00 TS 17.0333 -71.0667 80 hurdat_atl main 74 44 O____________O hurdat_atl AL051873 16.9000 -71.1000 HU 80 1 17.3000 -71.0000 HU 85 10 292
1873269N13303 1873 18 NA CS NOT_NAMED 1873-09-28 03:00:00 TS 17.2543 -71.6149 main 39 39 P____________P AL051873 17.1277 -71.7224 HU 85 2 17.5075 -71.4000 HU 87 11 295
1873269N13303 1873 18 NA CS NOT_NAMED 1873-09-28 06:00:00 TS 17.5000 -72.1333 90 hurdat_atl main 62 54 O____________O hurdat_atl AL051873 17.4000 -72.3000 HU 90 2 17.7000 -71.8000 HU 90 10 299
1873269N13303 1873 18 NA CS NOT_NAMED 1873-09-28 09:00:00 TS 17.7147 -72.4988 main 54 11 P____________P AL051873 17.6621 -72.6730 HU 95 2 17.8199 -72.1504 HU 95 8 307
1873269N13303 1873 18 NA CS NOT_NAMED 1873-09-28 12:00:00 TS 18.0000 -72.8333 100 hurdat_atl main 11 0 O____________O hurdat_atl AL051873 18.0000 -73.0000 HU 100 3 18.0000 -72.5000 MH 100 971 10 315
1873269N13303 1873 18 NA NA NOT_NAMED 1873-09-28 15:00:00 TS 18.4518 -73.2713 main 11 11 P____________P AL051873 18.4926 -73.4571 HU 95 2 18.3700 -72.8998 MH 97 12 319
1873269N13303 1873 18 NA CS NOT_NAMED 1873-09-28 18:00:00 TS 18.9333 -73.7000 90 hurdat_atl main 44 44 O____________O hurdat_atl AL051873 19.0000 -73.9000 HU 90 2 18.8000 -73.3000 HU 95 11 321
1873269N13303 1873 18 NA CS NOT_NAMED 1873-09-28 21:00:00 TS 19.3104 -73.9997 main 68 55 P____________P AL051873 19.3871 -74.1930 HU 90 2 19.1571 -73.6130 HU 92 9 320
1873269N13303 1873 18 NA CS NOT_NAMED 1873-09-29 00:00:00 TS 19.6333 -74.3333 90 hurdat_atl main 55 11 O____________O hurdat_atl AL051873 19.7000 -74.5000 HU 90 2 19.5000 -74.0000 HU 90 10 309
1873269N13303 1873 18 NA CS NOT_NAMED 1873-09-29 03:00:00 TS 19.9644 -74.8630 main 0 0 P____________P AL051873 20.0026 -74.9698 HU 85 2 19.8881 -74.6494 HU 90 12 299
1873269N13303 1873 18 NA NA NOT_NAMED 1873-09-29 06:00:00 TS 20.2000 -75.4333 80 hurdat_atl main 0 0 O____________O hurdat_atl AL051873 20.2000 -75.5000 HU 80 1 20.2000 -75.3000 HU 90 10 287
1873269N13303 1873 18 NA NA NOT_NAMED 1873-09-29 09:00:00 TS 20.2732 -75.9187 main 0 0 P____________P AL051873 20.2376 -76.0304 HU 70 1 20.3446 -75.6955 HU 85 8 275
1873269N13303 1873 18 NA NA NOT_NAMED 1873-09-29 12:00:00 TS 20.2667 -76.3333 60 hurdat_atl main 0 0 O____________O hurdat_atl AL051873 20.2000 -76.5000 TS 60 0 20.4000 -76.0000 HU 80 7 271
1873269N13303 1873 18 NA NA NOT_NAMED 1873-09-29 15:00:00 TS 20.2881 -76.6650 main 0 0 P____________P AL051873 20.2072 -76.8224 TS 55 0 20.4499 -76.3501 HU 77 6 273
1873269N13303 1873 18 NA NA NOT_NAMED 1873-09-29 18:00:00 TS 20.3000 -76.9667 50 hurdat_atl main 0 0 O____________O hurdat_atl AL051873 20.2000 -77.1000 TS 50 0 20.5000 -76.7000 HU 75 6 272
1873269N13303 1873 18 NA CS NOT_NAMED 1873-09-29 21:00:00 TS 20.3050 -77.3192 main 10 10 P____________P AL051873 20.1575 -77.4500 TS 45 0 20.6000 -77.0574 HU 72 7 270
1873269N13303 1873 18 NA CS NOT_NAMED 1873-09-30 00:00:00 TS 20.3000 -77.6667 40 hurdat_atl main 24 24 O____________O hurdat_atl AL051873 20.1000 -77.8000 TS 40 0 20.7000 -77.4000 HU 70 6 267
1873269N13303 1873 18 NA CS NOT_NAMED 1873-09-30 03:00:00 TS 20.2782 -77.9717 main 44 44 P____________P AL051873 20.0424 -78.1075 TS 40 0 20.7499 -77.7001 HU 70 6 267
1873269N13303 1873 18 NA CS NOT_NAMED 1873-09-30 06:00:00 TS 20.2667 -78.2667 40 hurdat_atl main 54 54 O____________O hurdat_atl AL051873 20.0000 -78.4000 TS 40 0 20.8000 -78.0000 HU 70 6 271
1873269N13303 1873 18 NA CS NOT_NAMED 1873-09-30 09:00:00 TS 20.2900 -78.5808 main 74 74 P____________P AL051873 19.9849 -78.7000 TS 40 0 20.9000 -78.3424 HU 70 6 276
1873269N13303 1873 18 NA CS NOT_NAMED 1873-09-30 12:00:00 TS 20.3333 -78.9000 40 hurdat_atl main 88 84 O____________O hurdat_atl AL051873 20.0000 -79.0000 TS 40 0 21.0000 -78.7000 HU 70 6 279
1873269N13303 1873 18 NA CS NOT_NAMED 1873-09-30 15:00:00 TS 20.3858 -79.2241 main 99 99 P____________P AL051873 20.0500 -79.3074 TS 40 0 21.0575 -79.0576 HU 72 6 280
1873269N13303 1873 18 NA CS NOT_NAMED 1873-09-30 18:00:00 TS 20.4333 -79.5333 40 hurdat_atl main 123 123 O____________O hurdat_atl AL051873 20.1000 -79.6000 TS 40 0 21.1000 -79.4000 HU 75 5 277
1873269N13303 1873 18 NA CS NOT_NAMED 1873-09-30 21:00:00 TS 20.4549 -79.8050 main 126 126 P____________P AL051873 20.1074 -79.8575 TS 40 0 21.1499 -79.7000 HU 75 5 274
1873269N13303 1873 18 NA CS NOT_NAMED 1873-10-01 00:00:00 TS 20.4667 -80.0667 40 hurdat_atl main 134 134 O____________O hurdat_atl AL051873 20.1000 -80.1000 TS 40 0 21.2000 -80.0000 HU 75 5 273
1873269N13303 1873 18 NA CS NOT_NAMED 1873-10-01 03:00:00 TS 20.4858 -80.3525 main 140 140 P____________P AL051873 20.1075 -80.3575 TS 40 0 21.2425 -80.3426 HU 80 5 274
1873269N13303 1873 18 NA CS NOT_NAMED 1873-10-01 06:00:00 TS 20.5000 -80.6333 40 hurdat_atl main 147 147 O____________O hurdat_atl AL051873 20.1000 -80.6000 TS 40 0 21.3000 -80.7000 HU 85 5 272
1873269N13303 1873 18 NA CS NOT_NAMED 1873-10-01 09:00:00 TS 20.5000 -80.8908 main 163 163 P____________P AL051873 20.0499 -80.8075 TS 40 0 21.4000 -81.0574 HU 87 5 270
1873269N13303 1873 18 NA CS NOT_NAMED 1873-10-01 12:00:00 TS 20.5000 -81.1333 40 hurdat_atl main 168 167 O____________O hurdat_atl AL051873 20.0000 -81.0000 TS 40 0 21.5000 -81.4000 HU 90 4 272
1873269N13303 1873 18 NA CS NOT_NAMED 1873-10-01 15:00:00 TS 20.5141 -81.3667 main 167 154 P____________P AL051873 19.9925 -81.2000 TS 40 0 21.5574 -81.7001 HU 92 4 274
1873269N13303 1873 18 NA CS NOT_NAMED 1873-10-01 18:00:00 TS 20.5333 -81.6000 40 hurdat_atl main 154 142 O____________O hurdat_atl AL051873 20.0000 -81.4000 TS 40 0 21.6000 -82.0000 HU 95 5 274
1873269N13303 1873 18 NA CS NOT_NAMED 1873-10-01 21:00:00 TS 20.5475 -81.8525 main 137 115 P____________P AL051873 20.0000 -81.6075 TS 45 0 21.6425 -82.3426 HU 97 5 274
1873269N13303 1873 18 NA CS NOT_NAMED 1873-10-02 00:00:00 TS 20.5667 -82.1000 50 hurdat_atl main 115 103 O____________O hurdat_atl AL051873 20.0000 -81.8000 TS 50 0 21.7000 -82.7000 MH 100 4 277
1873269N13303 1873 18 NA CS NOT_NAMED 1873-10-02 03:00:00 TS 20.5999 -82.3166 main 103 94 P____________P AL051873 19.9999 -81.9500 TS 50 0 21.7999 -83.0499 MH 100 4 279
1873269N13303 1873 18 NA CS NOT_NAMED 1873-10-02 06:00:00 TS 20.6333 -82.5333 50 hurdat_atl main 94 78 O____________O hurdat_atl AL051873 20.0000 -82.1000 TS 50 0 21.9000 -83.4000 MH 100 4 277
1873269N13303 1873 18 NA CS NOT_NAMED 1873-10-02 09:00:00 TS 20.6550 -82.7933 main 78 78 P____________P AL051873 20.0000 -82.3000 TS 50 0 21.9651 -83.7800 MH 100 5 274
1873269N13303 1873 18 NA CS NOT_NAMED 1873-10-02 12:00:00 TS 20.6667 -83.0333 50 hurdat_atl main 80 80 O____________O hurdat_atl AL051873 20.0000 -82.5000 TS 50 0 22.0000 -84.1000 MH 100 960 4 273
1873269N13303 1873 18 NA CS NOT_NAMED 1873-10-02 15:00:00 TS 20.6716 -83.1983 main 88 88 P____________P AL051873 20.0000 -82.6575 TS 50 0 22.0149 -84.2800 MH 100 3 270
1873269N13303 1873 18 NA CS NOT_NAMED 1873-10-02 18:00:00 TS 20.6667 -83.3333 50 hurdat_atl main 93 93 O____________O hurdat_atl AL051873 20.0000 -82.8000 TS 50 0 22.0000 -84.4000 MH 100 3 266
1873269N13303 1873 18 NA CS NOT_NAMED 1873-10-02 21:00:00 TS 20.6525 -83.4733 main 103 103 P____________P AL051873 19.9999 -82.9350 TS 55 0 21.9575 -84.5500 MH 100 3 263
1873269N13303 1873 18 NA CS NOT_NAMED 1873-10-03 00:00:00 TS 20.6333 -83.6333 60 hurdat_atl main 118 118 O____________O hurdat_atl AL051873 20.0000 -83.1000 TS 60 0 21.9000 -84.7000 MH 100 3 264
1873269N13303 1873 18 NA CS NOT_NAMED 1873-10-03 03:00:00 TS 20.6167 -83.8450 main 130 130 P____________P AL051873 20.0000 -83.3425 TS 60 0 21.8500 -84.8500 MH 100 4 265
1873269N13303 1873 18 NA CS NOT_NAMED 1873-10-03 06:00:00 TS 20.6000 -84.0667 60 hurdat_atl main 140 137 O____________O hurdat_atl AL051873 20.0000 -83.6000 TS 60 0 21.8000 -85.0000 MH 100 4 265
1873269N13303 1873 18 NA CS NOT_NAMED 1873-10-03 09:00:00 TS 20.5833 -84.2450 main 137 134 P____________P AL051873 19.9999 -83.7925 TS 65 1 21.7500 -85.1500 MH 100 3 264
1873269N13303 1873 18 NA CS NOT_NAMED 1873-10-03 12:00:00 TS 20.5667 -84.4333 70 hurdat_atl main 134 134 O____________O hurdat_atl AL051873 20.0000 -84.0000 HU 70 1 21.7000 -85.3000 MH 100 4 265
1873269N13303 1873 18 NA CS NOT_NAMED 1873-10-03 15:00:00 TS 20.5500 -84.6783 main 134 134 P____________P AL051873 20.0001 -84.2925 HU 70 1 21.6500 -85.4500 MH 100 5 266
1873269N13303 1873 18 NA CS NOT_NAMED 1873-10-03 18:00:00 TS 20.5333 -84.9333 70 hurdat_atl main 145 145 O____________O hurdat_atl AL051873 20.0000 -84.6000 HU 70 1 21.6000 -85.6000 MH 100 4 265
1873269N13303 1873 18 NA CS NOT_NAMED 1873-10-03 21:00:00 TS 20.5116 -85.1525 main 151 150 P____________P AL051873 19.9924 -84.8575 HU 70 1 21.5500 -85.7425 MH 100 4 265
1873269N13303 1873 18 NA CS NOT_NAMED 1873-10-04 00:00:00 TS 20.5000 -85.3667 70 hurdat_atl main 150 132 O____________O hurdat_atl AL051873 20.0000 -85.1000 HU 70 1 21.5000 -85.9000 MH 100 4 269
1873269N13303 1873 18 NA CS NOT_NAMED 1873-10-04 03:00:00 TS 20.5042 -85.6050 main 132 115 P____________P AL051873 20.0425 -85.3575 HU 70 1 21.4275 -86.1001 MH 100 4 274
1873269N13303 1873 18 NA CS NOT_NAMED 1873-10-04 06:00:00 TS 20.5333 -85.8333 70 hurdat_atl main 115 91 O____________O hurdat_atl AL051873 20.1000 -85.6000 HU 70 1 21.4000 -86.3000 MH 100 4 281
1873269N13303 1873 18 NA CS NOT_NAMED 1873-10-04 09:00:00 TS 20.5850 -86.0541 main 83 68 P____________P AL051873 20.1425 -85.8300 HU 75 1 21.4700 -86.5023 MH 100 4 291
1873269N13303 1873 18 NA CS NOT_NAMED 1873-10-04 12:00:00 TS 20.6667 -86.2000 80 hurdat_atl main 68 61 O____________O hurdat_atl AL051873 20.2000 -86.0000 HU 80 1 21.6000 -86.6000 MH 100 2 324
1873269N13303 1873 18 NA CS NOT_NAMED 1873-10-04 15:00:00 TS 20.7683 -86.2034 main 61 56 P____________P AL051873 20.2774 -86.0576 HU 80 1 21.7500 -86.4951 MH 100 2 11
1873269N13303 1873 18 NA CS NOT_NAMED 1873-10-04 18:00:00 TS 20.9000 -86.1667 80 hurdat_atl main 56 53 O____________O hurdat_atl AL051873 20.4000 -86.1000 HU 80 1 21.9000 -86.3000 MH 100 3 0
1873269N13303 1873 18 NA CS NOT_NAMED 1873-10-04 21:00:00 TS 21.0567 -86.2166 main 51 42 P____________P AL051873 20.5850 -86.2499 HU 80 1 22.0000 -86.1499 MH 100 3 344
1873269N13303 1873 18 NA CS NOT_NAMED 1873-10-05 00:00:00 TS 21.2333 -86.2667 80 hurdat_atl main 42 42 O____________O hurdat_atl AL051873 20.8000 -86.4000 HU 80 1 22.1000 -86.0000 MH 100 4 354
1873269N13303 1873 18 NA CS NOT_NAMED 1873-10-05 03:00:00 TS 21.4217 -86.2625 main 52 52 P____________P AL051873 21.0075 -86.4725 HU 80 1 22.2500 -85.8425 MH 100 4 6
1873269N13303 1873 18 NA CS NOT_NAMED 1873-10-05 06:00:00 TS 21.6000 -86.2333 80 hurdat_atl main 70 70 O____________O hurdat_atl AL051873 21.2000 -86.5000 HU 80 1 22.4000 -85.7000 MH 100 3 7
1873269N13303 1873 18 NA CS NOT_NAMED 1873-10-05 09:00:00 TS 21.7283 -86.2124 main 76 76 P____________P AL051873 21.3500 -86.5150 HU 85 2 22.4849 -85.6073 MH 100 3 11
1873269N13303 1873 18 NA GM NOT_NAMED 1873-10-05 12:00:00 TS 21.8667 -86.1667 90 hurdat_atl main 91 91 O____________O hurdat_atl AL051873 21.5000 -86.5000 HU 90 2 22.6000 -85.5000 MH 100 4 20
1873269N13303 1873 18 NA GM NOT_NAMED 1873-10-05 15:00:00 TS 22.0658 -86.0866 main 113 108 P____________P AL051873 21.6850 -86.4724 HU 90 2 22.8275 -85.3151 MH 100 5 23
1873269N13303 1873 18 NA GM NOT_NAMED 1873-10-05 18:00:00 TS 22.3000 -85.9667 90 hurdat_atl main 112 102 O____________O hurdat_atl AL051873 21.9000 -86.4000 HU 90 2 23.1000 -85.1000 MH 100 5 29
1873269N13303 1873 18 NA GM NOT_NAMED 1873-10-05 21:00:00 TS 22.5400 -85.8050 main 106 106 P____________P AL051873 22.1350 -86.2576 HU 90 2 23.3500 -84.8999 MH 100 6 32
1873269N13303 1873 18 NA GM NOT_NAMED 1873-10-06 00:00:00 TS 22.8000 -85.6333 90 hurdat_atl main 118 118 O____________O hurdat_atl AL051873 22.4000 -86.1000 HU 90 2 23.6000 -84.7000 MH 100 6 28
1873269N13303 1873 18 NA GM NOT_NAMED 1873-10-06 03:00:00 TS 23.0733 -85.5024 main 143 143 P____________P AL051873 22.6849 -86.0073 HU 90 2 23.8500 -84.4925 MH 100 6 23
1873269N13303 1873 18 NA GM NOT_NAMED 1873-10-06 06:00:00 TS 23.3667 -85.3667 90 hurdat_atl main 158 150 O____________O hurdat_atl AL051873 23.0000 -85.9000 HU 90 2 24.1000 -84.3000 MH 100 6 22
1873269N13303 1873 18 NA GM NOT_NAMED 1873-10-06 09:00:00 TS 23.6529 -85.2526 main 173 165 P____________P AL051873 23.3195 -85.7891 HU 95 2 24.3198 -84.1794 MH 100 7 28
1873269N13303 1873 18 NA GM NOT_NAMED 1873-10-06 12:00:00 TS 24.0000 -85.0000 100 hurdat_atl main 177 177 O____________O hurdat_atl AL051873 23.7000 -85.5000 HU 100 3 24.6000 -84.0000 MH 100 11 42
1873269N13303 1873 18 NA GM NOT_NAMED 1873-10-06 15:00:00 TS 24.4359 -84.4846 main 196 196 P____________P AL051873 24.1403 -84.8895 HU 100 3 25.0273 -83.6749 MH 100 15 49
1873269N13303 1873 18 NA GM NOT_NAMED 1873-10-06 18:00:00 TS 24.9667 -83.8000 100 hurdat_atl main 233 146 O____________O hurdat_atl AL051873 24.7000 -84.1000 HU 100 3 25.5000 -83.2000 MH 100 17 48
1873269N13303 1873 18 NA GM NOT_NAMED 1873-10-06 21:00:00 TS 25.5554 -83.0906 main 141 44 P____________P AL051873 25.3793 -83.3386 HU 100 3 25.9075 -82.5947 MH 100 19 47
1873269N13303 1873 18 NA GM NOT_NAMED 1873-10-07 00:00:00 TS 26.2333 -82.3000 100 959 hurdat_atl main 44 14 O____________O hurdat_atl AL051873 26.2000 -82.5000 HU 100 959 3 26.3000 -81.9000 MH 100 959 20 46
1873269N13303 1873 18 NA GM NOT_NAMED 1873-10-07 01:00:00 TS 26.4712 -82.0393 100 959 hurdat_atl main 0 0 O____________P hurdat_atl AL051873 26.5000 -82.2000 L HU 100 959 3 26.4137 -81.7179 MH 99 22 46
1873269N13303 1873 18 NA NA NOT_NAMED 1873-10-07 03:00:00 TS 26.9736 -81.4302 main 0 0 P____________P AL051873 27.1382 -81.4760 HU 91 2 26.6444 -81.3385 MH 97 24 49
1873269N13303 1873 18 NA NA NOT_NAMED 1873-10-07 06:00:00 TS 27.7667 -80.3667 80 hurdat_atl main 9 9 O____________O hurdat_atl AL051873 28.1000 -80.3000 HU 80 1 27.1000 -80.5000 HU 95 25 50
1873269N13303 1873 18 NA NA NOT_NAMED 1873-10-07 09:00:00 TS 28.5522 -79.2688 main 117 117 P____________P AL051873 28.9398 -79.3855 HU 80 1 27.7770 -79.0354 HU 95 25 51
1873269N13303 1873 18 NA NA NOT_NAMED 1873-10-07 12:00:00 TS 29.3333 -78.1667 80 hurdat_atl main 240 240 O____________O hurdat_atl AL051873 29.7000 -78.6000 HU 80 1 28.6000 -77.3000 HU 95 24 50
1873269N13303 1873 18 NA NA NOT_NAMED 1873-10-07 15:00:00 TS 30.1089 -77.1218 main 374 374 P____________P AL051873 30.4218 -77.8335 HU 80 1 29.4831 -75.6986 HU 95 24 49
1873269N13303 1873 18 NA NA NOT_NAMED 1873-10-07 18:00:00 TS 30.8667 -76.1000 80 hurdat_atl main 378 369 O____________O hurdat_atl AL051873 31.1000 -77.1000 HU 80 1 30.4000 -74.1000 HU 95 23 50
1873269N13303 1873 18 NA NA NOT_NAMED 1873-10-07 21:00:00 TS 31.6024 -75.0655 main 369 345 P____________P AL051873 31.7570 -76.3488 HU 85 2 31.2930 -72.4988 HU 95 23 51
1873269N13303 1873 18 NA NA NOT_NAMED 1873-10-08 00:00:00 TS 32.3000 -74.0333 90 hurdat_atl main 353 351 O____________O hurdat_atl AL051873 32.4000 -75.6000 HU 90 2 32.1000 -70.9000 HU 95 962 22 53
1873269N13303 1873 18 NA NA NOT_NAMED 1873-10-08 03:00:00 TS 32.9099 -72.9959 main 376 374 P____________P AL051873 33.0496 -74.8489 HU 90 2 32.6306 -69.2900 HU 82 19 48
1873269N13303 1873 18 NA NA NOT_NAMED 1873-10-08 06:00:00 TS 33.5909 -72.3545 90 hurdat_atl main 374 359 O____________O hurdat_atl AL051873 33.7000 -74.1000 HU 90 2 33.3000 -67.7000 HU 70 17 32
1873269N13303 1873 18 NA NA NOT_NAMED 1873-10-08 09:00:00 TS 34.3697 -71.9141 main 362 352 P____________P AL051873 34.3493 -73.3635 HU 85 2 34.4517 -66.1166 HU 60 16 20
1873269N13303 1873 18 NA NA NOT_NAMED 1873-10-08 12:00:00 TS 35.1000 -71.7000 80 hurdat_atl main 352 334 O____________O hurdat_atl AL051873 35.0000 -72.6000 HU 80 1 35.9000 -64.5000 TS 50 13 4
1873269N13303 1873 18 NA NA NOT_NAMED 1873-10-08 15:00:00 TS 35.6560 -71.8154 main 333 333 P_____________ AL051873 35.6560 -71.8154 HU 80 1 TS 14 28
1873269N13303 1873 18 NA NA NOT_NAMED 1873-10-08 18:00:00 TS 36.3000 -70.9000 80 hurdat_atl main 416 416 O_____________ hurdat_atl AL051873 36.3000 -70.9000 HU 80 1 21 53
1873269N13303 1873 18 NA NA NOT_NAMED 1873-10-08 21:00:00 TS 36.9002 -69.7511 main 487 480 P_____________ AL051873 36.9002 -69.7511 HU 75 1 23 58
1873269N13303 1873 18 NA NA NOT_NAMED 1873-10-09 00:00:00 TS 37.5000 -68.5000 70 hurdat_atl main 483 452 O_____________ hurdat_atl AL051873 37.5000 -68.5000 HU 70 1 24 57
1873269N13303 1873 18 NA NA NOT_NAMED 1873-10-09 03:00:00 TS 38.1878 -67.2417 main 456 451 P_____________ AL051873 38.1878 -67.2417 HU 70 1 23 55
1873269N13303 1873 18 NA NA NOT_NAMED 1873-10-09 06:00:00 TS 38.8000 -66.1000 70 hurdat_atl main 461 459 O_____________ hurdat_atl AL051873 38.8000 -66.1000 HU 70 1 19 57
1873269N13303 1873 18 NA NA NOT_NAMED 1873-10-09 09:00:00 TS 39.2081 -65.2295 main 478 448 P_____________ AL051873 39.2081 -65.2295 HU 65 1 14 61
1873269N13303 1873 18 NA NA NOT_NAMED 1873-10-09 12:00:00 ET 39.5000 -64.5000 60 hurdat_atl main 449 429 O_____________ hurdat_atl AL051873 39.5000 -64.5000 EX 60 -4 13 64
1873269N13303 1873 18 NA NA NOT_NAMED 1873-10-09 15:00:00 ET 39.7644 -63.7414 main 432 427 P_____________ AL051873 39.7644 -63.7414 EX 60 -4 13 67
1873269N13303 1873 18 NA NA NOT_NAMED 1873-10-09 18:00:00 ET 40.0000 -63.0000 60 hurdat_atl main 433 430 O_____________ hurdat_atl AL051873 40.0000 -63.0000 EX 60 -4 12 67
1873269N13303 1873 18 NA NA NOT_NAMED 1873-10-09 21:00:00 ET 40.2495 -62.2494 main 447 438 P_____________ AL051873 40.2495 -62.2494 EX 60 -4 12 66
1873269N13303 1873 18 NA NA NOT_NAMED 1873-10-10 00:00:00 ET 40.5000 -61.5000 60 hurdat_atl main 456 456 O_____________ hurdat_atl AL051873 40.5000 -61.5000 EX 60 -4 12 66
1873269N13303 1873 18 NA NA NOT_NAMED 1873-10-10 03:00:00 ET 40.7510 -60.7511 main 460 460 P_____________ AL051873 40.7510 -60.7511 EX 60 -4 12 66
1873269N13303 1873 18 NA NA NOT_NAMED 1873-10-10 06:00:00 ET 41.0000 -60.0000 60 hurdat_atl main 468 O_____________ hurdat_atl AL051873 41.0000 -60.0000 EX 60 -4 12 66

IBTrACS Databaseについて

本データベースは、米国NOAAが公開する1842年以降の世界の熱帯低気圧のベストトラックデータアーカイブInternational Best Track Archive for Climate Stewardship (IBTrACS)を、ウェブで閲覧しやすい形式に変換したものです。

最終更新日:2021-10-27